Time;durP1;ratioP1;P1;durP2;ratioP2;P2;SDS_P1;SDS_P2;PMS_P1;PMS_P2;Temp;Humidity;BMP_temperature;BMP_pressure;BME280_temperature;BME280_humidity;BME280_pressure;Samples;Min_cycle;Max_cycle;Signal;HPM_P1;HPM_P2
2021/03/26 00:00:53;;;;;;;22.58;20.58;;;;;;;;;;4937079;29;20027;-61
2021/03/26 00:03:21;;;;;;;23.75;21.52;;;;;;;;;;4937034;29;20518;-60
2021/03/26 00:05:47;;;;;;;24.63;18.98;;;;;;;;;;4938749;28;20094;-70
2021/03/26 00:08:13;;;;;;;22.70;17.08;;;;;;;;;;4938428;29;20095;-70
2021/03/26 00:10:39;;;;;;;23.30;16.13;;;;;;;;;;4937472;29;20038;-70
2021/03/26 00:13:04;;;;;;;20.15;17.58;;;;;;;;;;4938714;29;20011;-69
2021/03/26 00:15:30;;;;;;;11.43;10.43;;;;;;;;;;4938338;29;20390;-69
2021/03/26 00:17:55;;;;;;;15.43;11.05;;;;;;;;;;4949460;29;20024;-70
2021/03/26 00:20:21;;;;;;;10.88;9.77;;;;;;;;;;4949680;28;20074;-70
2021/03/26 00:22:46;;;;;;;19.63;9.18;;;;;;;;;;4950690;28;20023;-70
2021/03/26 00:25:11;;;;;;;10.52;9.40;;;;;;;;;;4949278;28;20741;-70
2021/03/26 00:27:37;;;;;;;23.35;12.93;;;;;;;;;;4949717;29;20043;-70
2021/03/26 00:30:04;;;;;;;16.15;12.77;;;;;;;;;;4946462;29;20110;-70
2021/03/26 00:32:29;;;;;;;14.77;12.15;;;;;;;;;;4946678;28;20855;-70
2021/03/26 00:34:54;;;;;;;12.38;10.55;;;;;;;;;;4950983;29;20102;-70
2021/03/26 00:37:21;;;;;;;15.25;11.73;;;;;;;;;;4949001;28;20027;-70
2021/03/26 00:39:46;;;;;;;14.10;12.63;;;;;;;;;;4949357;28;20073;-70
2021/03/26 00:42:12;;;;;;;16.55;11.85;;;;;;;;;;4946980;29;20423;-70
2021/03/26 00:44:37;;;;;;;14.35;11.40;;;;;;;;;;4949812;29;20102;-71
2021/03/26 00:47:02;;;;;;;13.18;11.10;;;;;;;;;;4950103;28;20059;-70
2021/03/26 00:49:28;;;;;;;9.65;8.73;;;;;;;;;;4948924;29;20379;-70
2021/03/26 00:51:53;;;;;;;10.10;9.05;;;;;;;;;;4950310;28;20058;-70
2021/03/26 00:54:18;;;;;;;16.17;9.18;;;;;;;;;;4948938;28;20086;-70
2021/03/26 00:56:44;;;;;;;8.23;7.43;;;;;;;;;;4949609;28;20039;-70
2021/03/26 00:59:10;;;;;;;11.07;9.95;;;;;;;;;;4946725;29;20027;-70
2021/03/26 01:01:35;;;;;;;18.67;14.75;;;;;;;;;;4942326;29;20185;-68
2021/03/26 01:04:01;;;;;;;21.02;15.75;;;;;;;;;;4948881;28;20031;-70
2021/03/26 01:06:26;;;;;;;21.20;15.75;;;;;;;;;;4948703;28;20061;-70
2021/03/26 01:08:51;;;;;;;19.58;13.85;;;;;;;;;;4948511;28;20457;-70
2021/03/26 01:11:19;;;;;;;16.88;11.95;;;;;;;;;;4948731;29;20034;-71
2021/03/26 01:13:45;;;;;;;13.38;11.65;;;;;;;;;;4943946;29;20032;-70
2021/03/26 01:16:10;;;;;;;11.45;10.32;;;;;;;;;;4947977;29;20039;-71
2021/03/26 01:18:40;;;;;;;10.63;9.30;;;;;;;;;;4942106;29;20086;-70
2021/03/26 01:21:06;;;;;;;21.13;10.52;;;;;;;;;;4942595;29;20115;-71
2021/03/26 01:23:31;;;;;;;14.07;10.23;;;;;;;;;;4948587;28;20106;-70
2021/03/26 01:25:57;;;;;;;12.85;11.63;;;;;;;;;;4949751;29;20058;-70
2021/03/26 01:28:23;;;;;;;9.27;8.45;;;;;;;;;;4948273;28;20509;-71
2021/03/26 01:30:48;;;;;;;11.40;8.65;;;;;;;;;;4949172;28;20050;-70
2021/03/26 01:33:14;;;;;;;8.20;7.35;;;;;;;;;;4948855;28;20027;-69
2021/03/26 01:35:40;;;;;;;11.73;8.10;;;;;;;;;;4950498;28;20046;-71
2021/03/26 01:38:07;;;;;;;10.65;9.38;;;;;;;;;;4953379;28;20027;-70
2021/03/26 01:40:37;;;;;;;8.98;6.82;;;;;;;;;;4952305;28;20023;-70
2021/03/26 01:43:07;;;;;;;11.45;7.13;;;;;;;;;;4953639;28;20023;-63
2021/03/26 01:45:32;;;;;;;10.00;9.05;;;;;;;;;;4950562;29;20467;-63
2021/03/26 01:47:58;;;;;;;9.52;6.40;;;;;;;;;;4951986;29;20023;-63
2021/03/26 01:50:25;;;;;;;10.65;8.73;;;;;;;;;;4950916;28;20454;-63
2021/03/26 01:52:51;;;;;;;12.63;10.90;;;;;;;;;;4951034;28;20035;-63
2021/03/26 01:55:28;;;;;;;9.73;8.63;;;;;;;;;;4945377;28;20042;-63
2021/03/26 01:57:53;;;;;;;10.75;9.35;;;;;;;;;;4945469;29;20086;-63
2021/03/26 02:00:22;;;;;;;11.15;7.75;;;;;;;;;;4952305;28;20035;-70
2021/03/26 02:02:48;;;;;;;7.65;6.63;;;;;;;;;;4952325;28;20083;-70
2021/03/26 02:05:14;;;;;;;9.65;7.72;;;;;;;;;;4949891;28;20443;-70
2021/03/26 02:07:40;;;;;;;10.13;8.18;;;;;;;;;;4952630;29;20033;-70
2021/03/26 02:10:05;;;;;;;12.25;9.82;;;;;;;;;;4953470;28;20031;-68
2021/03/26 02:12:31;;;;;;;15.32;7.53;;;;;;;;;;4950295;29;20028;-70
2021/03/26 02:14:56;;;;;;;11.40;10.00;;;;;;;;;;4952234;28;20031;-70
2021/03/26 02:17:24;;;;;;;9.85;8.90;;;;;;;;;;4951562;29;20034;-70
2021/03/26 02:19:54;;;;;;;16.50;13.27;;;;;;;;;;4953347;28;20031;-70
2021/03/26 02:22:21;;;;;;;14.98;12.50;;;;;;;;;;4951524;28;20019;-70
2021/03/26 02:24:47;;;;;;;10.85;8.85;;;;;;;;;;4953090;28;20035;-70
2021/03/26 02:27:16;;;;;;;14.15;9.75;;;;;;;;;;4951907;28;20027;-70
2021/03/26 02:29:41;;;;;;;13.18;11.00;;;;;;;;;;4952923;29;20027;-70
2021/03/26 02:32:12;;;;;;;16.60;11.65;;;;;;;;;;4950704;29;20027;-70
2021/03/26 02:34:37;;;;;;;13.85;12.45;;;;;;;;;;4951435;29;20036;-70
2021/03/26 02:37:08;;;;;;;15.88;12.85;;;;;;;;;;4949644;28;20042;-69
2021/03/26 02:39:46;;;;;;;15.73;11.65;;;;;;;;;;4950202;29;20471;-70
2021/03/26 02:42:20;;;;;;;13.80;11.57;;;;;;;;;;4951900;28;20034;-69
2021/03/26 02:44:59;;;;;;;13.85;12.48;;;;;;;;;;4947381;29;20035;-70
2021/03/26 02:47:45;;;;;;;14.05;11.02;;;;;;;;;;4948850;28;20023;-70
2021/03/26 02:50:13;;;;;;;14.55;11.50;;;;;;;;;;4946725;28;20039;-69
2021/03/26 02:52:43;;;;;;;12.48;11.32;;;;;;;;;;4951703;29;20020;-70
2021/03/26 02:55:24;;;;;;;11.60;9.40;;;;;;;;;;4952802;28;20038;-69
2021/03/26 02:57:49;;;;;;;14.18;10.00;;;;;;;;;;4945037;29;20102;-69
2021/03/26 03:00:21;;;;;;;10.38;8.63;;;;;;;;;;4951530;29;20134;-69
2021/03/26 03:02:46;;;;;;;;;;;;;;;;;;4947882;29;20102;-69
2021/03/26 03:05:14;;;;;;;9.77;8.77;;;;;;;;;;4950615;28;19915;-69
2021/03/26 03:07:41;;;;;;;16.45;9.75;;;;;;;;;;4951322;29;20023;-69
2021/03/26 03:10:16;;;;;;;10.75;7.22;;;;;;;;;;4952347;28;20035;-70
2021/03/26 03:12:42;;;;;;;6.47;5.95;;;;;;;;;;4951316;29;20023;-69
2021/03/26 03:15:12;;;;;;;8.68;6.47;;;;;;;;;;4952244;28;20035;-69
2021/03/26 03:17:40;;;;;;;11.55;6.38;;;;;;;;;;4950299;29;20027;-69
2021/03/26 03:20:06;;;;;;;8.05;7.05;;;;;;;;;;4951933;28;20149;-70
2021/03/26 03:22:34;;;;;;;7.90;6.57;;;;;;;;;;4945766;28;20106;-70
2021/03/26 03:25:03;;;;;;;7.70;6.68;;;;;;;;;;4952059;28;20024;-70
2021/03/26 03:27:32;;;;;;;9.85;5.90;;;;;;;;;;4949998;28;20027;-69
2021/03/26 03:29:57;;;;;;;10.30;6.90;;;;;;;;;;4944823;28;20102;-69
2021/03/26 03:32:29;;;;;;;7.40;6.70;;;;;;;;;;4945444;28;20626;-70
2021/03/26 03:35:00;;;;;;;9.02;8.18;;;;;;;;;;4952011;28;20062;-69
2021/03/26 03:37:33;;;;;;;11.00;6.07;;;;;;;;;;4944519;28;20434;-69
2021/03/26 03:39:58;;;;;;;9.13;6.47;;;;;;;;;;4951882;28;20090;-69
2021/03/26 03:42:39;;;;;;;9.75;5.95;;;;;;;;;;4948532;29;20031;-70
2021/03/26 03:45:23;;;;;;;10.05;6.68;;;;;;;;;;4951710;28;20065;-69
2021/03/26 03:47:51;;;;;;;6.45;4.70;;;;;;;;;;4951181;28;20027;-70
2021/03/26 03:50:21;;;;;;;8.68;5.00;;;;;;;;;;4950533;28;20026;-70
2021/03/26 03:53:13;;;;;;;5.85;4.13;;;;;;;;;;4946344;29;20023;-70
2021/03/26 03:55:47;;;;;;;11.15;5.95;;;;;;;;;;4944815;29;20346;-70
2021/03/26 03:58:18;;;;;;;9.02;5.90;;;;;;;;;;4947606;28;20106;-69
2021/03/26 04:00:51;;;;;;;7.20;6.40;;;;;;;;;;4949399;29;20086;-70
2021/03/26 04:03:23;;;;;;;7.03;5.15;;;;;;;;;;4949653;28;20072;-70
2021/03/26 04:05:48;;;;;;;9.88;8.82;;;;;;;;;;4943819;29;20028;-70
2021/03/26 04:08:13;;;;;;;10.75;7.90;;;;;;;;;;4949973;28;20020;-69
2021/03/26 04:10:40;;;;;;;15.73;9.77;;;;;;;;;;4950241;29;20027;-69
2021/03/26 04:13:15;;;;;;;11.65;8.07;;;;;;;;;;4950680;28;20023;-69
2021/03/26 04:15:44;;;;;;;11.20;9.40;;;;;;;;;;4950000;29;20106;-70
2021/03/26 04:18:17;;;;;;;11.40;9.60;;;;;;;;;;4949125;28;20044;-69
2021/03/26 04:20:45;;;;;;;10.57;9.48;;;;;;;;;;4950595;29;20646;-69
2021/03/26 04:23:16;;;;;;;9.45;8.40;;;;;;;;;;4950066;28;20463;-69
2021/03/26 04:25:44;;;;;;;10.25;8.60;;;;;;;;;;4950278;29;20035;-69
2021/03/26 04:28:13;;;;;;;8.15;7.35;;;;;;;;;;4950136;28;20022;-69
2021/03/26 04:30:41;;;;;;;18.40;10.48;;;;;;;;;;4949350;29;20432;-69
2021/03/26 04:33:07;;;;;;;10.32;9.30;;;;;;;;;;4940919;29;20115;-64
2021/03/26 04:35:33;;;;;;;9.95;8.95;;;;;;;;;;4945492;28;20114;-62
2021/03/26 04:38:01;;;;;;;9.48;8.60;;;;;;;;;;4945510;28;20023;-62
2021/03/26 04:40:26;;;;;;;8.57;7.72;;;;;;;;;;4946815;29;20037;-62
2021/03/26 04:42:59;;;;;;;15.65;6.55;;;;;;;;;;4948960;28;20027;-63
2021/03/26 04:45:28;;;;;;;7.45;6.65;;;;;;;;;;4947732;28;20055;-62
2021/03/26 04:47:57;;;;;;;7.15;6.45;;;;;;;;;;4943726;28;20561;-62
2021/03/26 04:50:25;;;;;;;10.73;7.68;;;;;;;;;;4941329;29;20099;-62
2021/03/26 04:53:00;;;;;;;13.50;6.85;;;;;;;;;;4942387;28;20087;-62
2021/03/26 04:55:31;;;;;;;8.88;7.57;;;;;;;;;;4945345;28;20478;-62
2021/03/26 04:58:03;;;;;;;10.23;8.95;;;;;;;;;;4946163;28;20027;-62
2021/03/26 05:00:28;;;;;;;;;;;;;;;;;;4947589;28;20873;-62
2021/03/26 05:03:01;;;;;;;11.10;8.87;;;;;;;;;;4942314;28;19922;-62
2021/03/26 05:05:27;;;;;;;12.70;8.55;;;;;;;;;;4946606;28;20028;-62
2021/03/26 05:07:57;;;;;;;8.90;7.97;;;;;;;;;;4941104;29;20073;-62
2021/03/26 05:10:23;;;;;;;9.93;8.82;;;;;;;;;;4944506;28;20031;-62
2021/03/26 05:12:54;;;;;;;8.07;7.28;;;;;;;;;;4947587;28;20094;-62
2021/03/26 05:15:27;;;;;;;12.55;6.68;;;;;;;;;;4948818;28;20028;-62
2021/03/26 05:17:53;;;;;;;6.13;5.50;;;;;;;;;;4944577;29;20054;-62
2021/03/26 05:20:18;;;;;;;10.18;8.20;;;;;;;;;;4944775;28;20059;-61
2021/03/26 05:22:47;;;;;;;7.30;5.65;;;;;;;;;;4943987;29;20020;-62
2021/03/26 05:25:19;;;;;;;8.38;5.90;;;;;;;;;;4945493;28;20417;-62
2021/03/26 05:27:44;;;;;;;;;;;;;;;;;;4936606;29;20019;-62
2021/03/26 05:30:10;;;;;;;14.50;6.85;;;;;;;;;;4943688;29;19925;-62
2021/03/26 05:32:46;;;;;;;6.55;5.95;;;;;;;;;;4947702;29;20028;-62
2021/03/26 05:35:20;;;;;;;6.05;5.45;;;;;;;;;;4944142;28;20490;-62
2021/03/26 05:38:12;;;;;;;9.00;6.97;;;;;;;;;;4944481;29;20130;-62
2021/03/26 05:40:37;;;;;;;;;;;;;;;;;;4937698;29;20048;-62
2021/03/26 05:43:05;;;;;;;30.80;8.00;;;;;;;;;;4948428;28;19913;-62
2021/03/26 05:45:36;;;;;;;7.13;6.30;;;;;;;;;;4943569;28;20242;-62
2021/03/26 05:48:15;;;;;;;7.13;5.22;;;;;;;;;;4944625;28;20055;-62
2021/03/26 05:50:59;;;;;;;7.70;6.43;;;;;;;;;;4938292;29;20037;-62
2021/03/26 05:53:25;;;;;;;25.45;7.45;;;;;;;;;;4947989;28;20035;-70
2021/03/26 05:55:59;;;;;;;8.43;7.68;;;;;;;;;;4949482;28;20026;-67
2021/03/26 05:58:43;;;;;;;13.88;7.53;;;;;;;;;;4947819;28;20077;-67
2021/03/26 06:01:20;;;;;;;10.52;7.70;;;;;;;;;;4948520;28;20386;-67
2021/03/26 06:03:56;;;;;;;7.47;6.43;;;;;;;;;;4949645;28;20035;-67
2021/03/26 06:06:24;;;;;;;8.52;5.75;;;;;;;;;;4946239;28;20024;-67
2021/03/26 06:09:07;;;;;;;11.45;6.15;;;;;;;;;;4944999;29;20114;-67
2021/03/26 06:11:51;;;;;;;23.15;17.45;;;;;;;;;;4948026;28;20411;-67
2021/03/26 06:14:34;;;;;;;20.88;18.08;;;;;;;;;;4948434;29;20031;-67
2021/03/26 06:17:18;;;;;;;16.27;14.63;;;;;;;;;;4943203;29;20445;-67
2021/03/26 06:20:02;;;;;;;17.52;11.98;;;;;;;;;;4949417;29;20035;-67
2021/03/26 06:22:45;;;;;;;17.27;10.13;;;;;;;;;;4947231;29;20142;-67
2021/03/26 06:25:16;;;;;;;9.90;6.50;;;;;;;;;;4953009;29;20023;-68
2021/03/26 06:27:46;;;;;;;11.63;7.72;;;;;;;;;;4952345;29;20042;-67
2021/03/26 06:30:18;;;;;;;15.70;7.88;;;;;;;;;;4952600;28;20035;-67
2021/03/26 06:32:46;;;;;;;12.10;10.40;;;;;;;;;;4946939;29;20035;-68
2021/03/26 06:35:17;;;;;;;18.15;9.65;;;;;;;;;;4942428;29;20046;-67
2021/03/26 06:38:01;;;;;;;13.13;9.55;;;;;;;;;;4948308;29;20329;-67
2021/03/26 06:40:45;;;;;;;13.57;10.30;;;;;;;;;;4951201;28;20035;-67
2021/03/26 06:43:10;;;;;;;11.05;9.90;;;;;;;;;;4949222;29;20019;-67
2021/03/26 06:45:39;;;;;;;10.52;8.65;;;;;;;;;;4951311;29;20490;-67
2021/03/26 06:48:13;;;;;;;21.77;9.65;;;;;;;;;;4951686;28;20053;-67
2021/03/26 06:50:57;;;;;;;14.40;6.93;;;;;;;;;;4945899;29;20023;-67
2021/03/26 06:53:32;;;;;;;16.48;10.52;;;;;;;;;;4949408;28;20035;-67
2021/03/26 06:56:00;;;;;;;16.63;10.38;;;;;;;;;;4946645;29;20027;-62
2021/03/26 06:58:31;;;;;;;27.92;24.77;;;;;;;;;;4948809;29;20031;-63
2021/03/26 07:00:59;;;;;;;67.43;53.85;;;;;;;;;;4946895;29;20106;-62
2021/03/26 07:03:43;;;;;;;27.48;24.48;;;;;;;;;;4941371;29;20359;-62
2021/03/26 07:06:27;;;;;;;27.00;20.70;;;;;;;;;;4948466;29;20015;-62
2021/03/26 07:08:52;;;;;;;24.13;19.38;;;;;;;;;;4946055;29;20038;-62
2021/03/26 07:11:27;;;;;;;18.38;15.90;;;;;;;;;;4945946;29;20024;-62
2021/03/26 07:14:11;;;;;;;12.75;11.07;;;;;;;;;;4937216;29;20036;-62
2021/03/26 07:16:46;;;;;;;14.75;13.23;;;;;;;;;;4947269;29;20082;-62
2021/03/26 07:19:37;;;;;;;20.60;17.90;;;;;;;;;;4950385;28;20035;-62
2021/03/26 07:22:35;;;;;;;16.08;14.13;;;;;;;;;;4935241;29;20039;-61
2021/03/26 07:25:18;;;;;;;15.63;12.13;;;;;;;;;;4905475;28;20046;-62
2021/03/26 07:27:48;;;;;;;17.52;12.85;;;;;;;;;;4948707;29;20063;-62
2021/03/26 07:30:32;;;;;;;19.25;13.18;;;;;;;;;;4941911;28;20036;-62
2021/03/26 07:33:06;;;;;;;11.50;10.15;;;;;;;;;;4947549;28;20027;-62
2021/03/26 07:35:58;;;;;;;16.45;11.23;;;;;;;;;;4943166;29;20140;-62
2021/03/26 07:38:23;;;;;;;;;;;;;;;;;;4912452;29;20043;-62
2021/03/26 07:41:00;;;;;;;12.82;9.82;;;;;;;;;;4944818;28;20380;-67
2021/03/26 07:43:45;;;;;;;14.65;11.88;;;;;;;;;;4949633;28;20035;-67
2021/03/26 07:46:29;;;;;;;40.08;18.88;;;;;;;;;;4951051;28;20024;-67
2021/03/26 07:49:13;;;;;;;33.55;17.48;;;;;;;;;;4944496;29;20038;-68
2021/03/26 07:51:58;;;;;;;25.52;14.65;;;;;;;;;;4948479;29;20023;-67
2021/03/26 07:54:24;;;;;;;23.60;14.05;;;;;;;;;;4949259;29;20091;-67
2021/03/26 07:56:59;;;;;;;19.98;17.88;;;;;;;;;;4951150;29;20062;-67
2021/03/26 07:59:31;;;;;;;35.47;17.00;;;;;;;;;;4949367;28;20035;-68
2021/03/26 08:01:56;;;;;;;;;;;;;;;;;;4949977;29;20047;-67
2021/03/26 08:04:39;;;;;;;21.60;17.60;;;;;;;;;;4948441;28;19918;-67
2021/03/26 08:07:17;;;;;;;21.02;19.00;;;;;;;;;;4948407;29;20024;-62
2021/03/26 08:09:48;;;;;;;29.67;19.88;;;;;;;;;;4946432;29;20031;-62
2021/03/26 08:12:32;;;;;;;25.83;23.13;;;;;;;;;;4945617;28;20023;-61
2021/03/26 08:15:17;;;;;;;26.58;20.88;;;;;;;;;;4944120;29;20039;-62
2021/03/26 08:17:54;;;;;;;18.33;14.45;;;;;;;;;;4943540;29;20126;-62
2021/03/26 08:20:27;;;;;;;18.00;16.38;;;;;;;;;;4933488;29;20106;-62
2021/03/26 08:23:11;;;;;;;21.73;17.08;;;;;;;;;;4942131;29;20042;-62
2021/03/26 08:25:39;;;;;;;21.60;17.80;;;;;;;;;;4946307;29;20027;-62
2021/03/26 08:28:13;;;;;;;21.60;16.02;;;;;;;;;;4948857;29;20135;-62
2021/03/26 08:30:43;;;;;;;22.15;17.83;;;;;;;;;;4943935;29;20471;-62
2021/03/26 08:33:26;;;;;;;21.77;18.23;;;;;;;;;;4946690;29;20015;-62
2021/03/26 08:35:52;;;;;;;23.60;18.35;;;;;;;;;;4942892;29;20060;-62
2021/03/26 08:38:31;;;;;;;16.42;14.20;;;;;;;;;;4941754;29;20070;-62
2021/03/26 08:40:59;;;;;;;17.75;14.55;;;;;;;;;;4942737;29;20038;-62
2021/03/26 08:43:26;;;;;;;23.63;13.85;;;;;;;;;;4940217;28;20098;-62
2021/03/26 08:46:14;;;;;;;14.80;12.35;;;;;;;;;;4936792;28;20033;-62
2021/03/26 08:49:02;;;;;;;15.90;11.77;;;;;;;;;;4948563;29;20498;-62
2021/03/26 08:51:39;;;;;;;18.10;14.13;;;;;;;;;;4899748;29;20478;-62
2021/03/26 08:54:17;;;;;;;16.05;12.77;;;;;;;;;;4948654;28;20053;-62
2021/03/26 08:56:42;;;;;;;16.95;11.88;;;;;;;;;;4943265;29;20023;-62
2021/03/26 08:59:26;;;;;;;12.45;10.27;;;;;;;;;;4946030;29;20118;-62
2021/03/26 09:01:51;;;;;;;12.73;10.90;;;;;;;;;;4945407;29;20483;-62
2021/03/26 09:04:29;;;;;;;11.65;10.52;;;;;;;;;;4944207;29;20027;-62
2021/03/26 09:07:10;;;;;;;14.80;12.80;;;;;;;;;;4939696;29;20019;-62
2021/03/26 09:09:42;;;;;;;26.60;18.90;;;;;;;;;;4946756;29;20032;-69
2021/03/26 09:12:26;;;;;;;19.92;16.65;;;;;;;;;;4942698;28;20042;-69
2021/03/26 09:14:54;;;;;;;15.05;11.38;;;;;;;;;;4950158;29;20070;-69
2021/03/26 09:17:25;;;;;;;18.92;12.82;;;;;;;;;;4949629;28;20471;-68
2021/03/26 09:20:02;;;;;;;12.55;9.43;;;;;;;;;;4949573;28;20034;-68
2021/03/26 09:22:47;;;;;;;11.13;8.32;;;;;;;;;;4949080;28;20047;-67
2021/03/26 09:25:31;;;;;;;14.27;8.43;;;;;;;;;;4940756;29;20031;-66
2021/03/26 09:27:56;;;;;;;11.38;6.65;;;;;;;;;;4939273;29;20451;-67
2021/03/26 09:30:23;;;;;;;11.40;8.13;;;;;;;;;;4943074;29;20035;-67
2021/03/26 09:32:48;;;;;;;9.43;7.55;;;;;;;;;;4940706;28;20011;-67
2021/03/26 09:35:13;;;;;;;9.23;6.55;;;;;;;;;;4939429;29;20106;-68
2021/03/26 09:37:39;;;;;;;10.85;6.63;;;;;;;;;;4941447;29;20024;-68
2021/03/26 09:40:10;;;;;;;12.35;8.15;;;;;;;;;;4939960;29;20046;-67
2021/03/26 09:42:41;;;;;;;10.60;7.50;;;;;;;;;;4935620;29;20031;-67
2021/03/26 09:45:07;;;;;;;8.57;7.22;;;;;;;;;;4939615;29;20043;-68
2021/03/26 09:47:42;;;;;;;5.63;4.70;;;;;;;;;;4940769;29;20083;-67
2021/03/26 09:50:25;;;;;;;4.85;3.95;;;;;;;;;;4938113;29;20411;-68
2021/03/26 09:52:50;;;;;;;12.20;4.70;;;;;;;;;;4941992;29;20356;-68
2021/03/26 09:55:21;;;;;;;8.05;3.97;;;;;;;;;;4932981;29;20035;-67
2021/03/26 09:58:22;;;;;;;9.38;6.50;;;;;;;;;;4948279;29;20027;-67
2021/03/26 10:00:53;;;;;;;7.60;3.67;;;;;;;;;;4884380;29;20527;-66
2021/03/26 10:03:18;;;;;;;;;;;;;;;;;;4937372;29;20047;-67
2021/03/26 10:05:58;;;;;;;19.17;6.40;;;;;;;;;;4952665;29;19985;-69
2021/03/26 10:11:47;;;;;;;5.43;3.65;;;;;;;;;;4916669;29;20130;-66
2021/03/26 10:14:18;;;;;;;4.65;3.58;;;;;;;;;;4943576;29;20074;-67
2021/03/26 10:16:52;;;;;;;7.53;2.72;;;;;;;;;;4949451;29;20050;-66
2021/03/26 10:19:23;;;;;;;2.67;1.85;;;;;;;;;;4946205;28;20141;-66
2021/03/26 10:21:52;;;;;;;5.03;2.25;;;;;;;;;;4951413;29;20030;-65
2021/03/26 10:24:35;;;;;;;4.35;2.58;;;;;;;;;;4952779;28;20020;-67
2021/03/26 10:27:19;;;;;;;3.13;2.05;;;;;;;;;;4947587;29;20131;-67
2021/03/26 10:29:47;;;;;;;11.32;2.20;;;;;;;;;;4951658;29;20030;-66
2021/03/26 10:32:32;;;;;;;3.40;2.55;;;;;;;;;;4946735;28;20030;-67
2021/03/26 10:34:59;;;;;;;5.78;2.63;;;;;;;;;;4943829;29;20023;-66
2021/03/26 10:37:37;;;;;;;6.38;2.85;;;;;;;;;;4943400;28;20115;-67
2021/03/26 10:40:06;;;;;;;6.05;3.22;;;;;;;;;;4953407;28;20034;-65
2021/03/26 10:42:44;;;;;;;18.67;3.38;;;;;;;;;;4938525;29;20031;-66
2021/03/26 10:45:21;;;;;;;4.25;2.42;;;;;;;;;;4942276;29;20099;-67
2021/03/26 10:47:56;;;;;;;3.85;2.35;;;;;;;;;;4945652;29;20032;-67
2021/03/26 10:50:42;;;;;;;2.20;1.58;;;;;;;;;;4942129;28;20462;-67
2021/03/26 10:53:12;;;;;;;3.08;1.63;;;;;;;;;;4950449;28;20022;-66
2021/03/26 10:55:50;;;;;;;4.85;1.65;;;;;;;;;;4935551;29;20084;-66
2021/03/26 10:58:34;;;;;;;4.40;2.33;;;;;;;;;;4941044;29;20062;-67
2021/03/26 11:01:00;;;;;;;3.60;2.55;;;;;;;;;;4927999;29;20582;-68
2021/03/26 11:03:28;;;;;;;2.60;2.03;;;;;;;;;;4927167;29;20044;-68
2021/03/26 11:05:56;;;;;;;3.92;1.90;;;;;;;;;;4944732;29;20043;-68
2021/03/26 11:08:24;;;;;;;7.13;4.05;;;;;;;;;;4940892;28;20050;-68
2021/03/26 11:11:08;;;;;;;5.05;3.08;;;;;;;;;;4951613;28;20449;-68
2021/03/26 11:13:53;;;;;;;7.25;3.50;;;;;;;;;;4941114;29;20032;-69
2021/03/26 11:16:34;;;;;;;8.05;4.13;;;;;;;;;;4947543;29;20387;-69
2021/03/26 11:19:00;;;;;;;6.03;2.65;;;;;;;;;;4931518;29;20036;-68
2021/03/26 11:21:33;;;;;;;4.53;2.83;;;;;;;;;;4930276;29;20032;-70
2021/03/26 11:24:00;;;;;;;3.05;2.13;;;;;;;;;;4950769;28;20460;-70
2021/03/26 11:26:29;;;;;;;3.47;2.75;;;;;;;;;;4931144;28;20375;-70
2021/03/26 11:28:54;;;;;;;4.28;2.65;;;;;;;;;;4944597;29;20027;-71
2021/03/26 11:31:32;;;;;;;4.15;2.75;;;;;;;;;;4939383;28;20087;-71
2021/03/26 11:34:00;;;;;;;7.88;2.55;;;;;;;;;;4944231;28;20027;-71
2021/03/26 11:36:44;;;;;;;7.78;2.88;;;;;;;;;;4924409;29;20439;-70
2021/03/26 11:39:12;;;;;;;14.30;2.92;;;;;;;;;;4945090;29;20031;-70
2021/03/26 11:41:40;;;;;;;13.10;3.88;;;;;;;;;;4944254;29;20467;-71
2021/03/26 11:44:06;;;;;;;5.22;2.90;;;;;;;;;;4952972;28;20521;-70
2021/03/26 11:46:37;;;;;;;6.30;3.35;;;;;;;;;;4950730;29;20468;-69
2021/03/26 11:49:05;;;;;;;10.10;3.15;;;;;;;;;;4946108;28;20056;-69
2021/03/26 11:51:37;;;;;;;3.42;2.85;;;;;;;;;;4945996;29;20024;-68
2021/03/26 11:54:13;;;;;;;4.57;3.05;;;;;;;;;;4942930;29;20028;-69
2021/03/26 11:56:38;;;;;;;14.82;3.72;;;;;;;;;;4945245;29;20395;-69
2021/03/26 11:59:12;;;;;;;3.30;2.38;;;;;;;;;;4941561;29;20031;-69
2021/03/26 12:01:56;;;;;;;3.05;2.30;;;;;;;;;;4940405;29;20499;-69
2021/03/26 12:04:24;;;;;;;9.50;3.40;;;;;;;;;;4943561;29;20027;-69
2021/03/26 12:06:50;;;;;;;6.82;3.95;;;;;;;;;;4943873;29;20027;-66
2021/03/26 12:09:15;;;;;;;13.07;5.40;;;;;;;;;;4944331;28;20028;-66
2021/03/26 12:11:53;;;;;;;3.80;2.55;;;;;;;;;;4948438;29;20085;-66
2021/03/26 12:14:18;;;;;;;3.05;1.92;;;;;;;;;;4945932;29;20048;-66
2021/03/26 12:16:52;;;;;;;14.38;3.15;;;;;;;;;;4946403;29;20174;-68
2021/03/26 12:19:19;;;;;;;6.00;3.78;;;;;;;;;;4938716;29;20111;-69
2021/03/26 12:21:45;;;;;;;12.13;2.92;;;;;;;;;;4941823;29;20051;-67
2021/03/26 12:24:12;;;;;;;4.95;2.00;;;;;;;;;;4941846;29;20374;-67
2021/03/26 12:26:40;;;;;;;4.07;2.05;;;;;;;;;;4940656;28;20088;-63
2021/03/26 12:29:13;;;;;;;3.45;2.85;;;;;;;;;;4940948;28;20032;-64
2021/03/26 12:31:48;;;;;;;5.18;2.78;;;;;;;;;;4941500;29;20023;-63
2021/03/26 12:34:49;;;;;;;3.20;1.77;;;;;;;;;;4938953;29;20035;-64
2021/03/26 12:37:17;;;;;;;4.82;3.17;;;;;;;;;;4938727;29;20067;-64
2021/03/26 12:40:01;;;;;;;4.00;1.98;;;;;;;;;;4942876;29;20031;-64
2021/03/26 12:42:35;;;;;;;5.20;2.58;;;;;;;;;;4941736;28;20059;-62
2021/03/26 12:45:04;;;;;;;3.55;2.13;;;;;;;;;;4943027;29;20031;-62
2021/03/26 12:47:29;;;;;;;1.90;1.70;;;;;;;;;;4940228;28;20019;-64
2021/03/26 12:49:57;;;;;;;25.45;15.82;;;;;;;;;;4942719;29;20053;-65
2021/03/26 12:52:48;;;;;;;6.78;2.97;;;;;;;;;;4941331;29;20451;-64
2021/03/26 12:55:16;;;;;;;4.97;3.47;;;;;;;;;;4940656;29;20114;-64
2021/03/26 12:57:41;;;;;;;3.15;2.20;;;;;;;;;;4943501;29;20054;-65
2021/03/26 13:00:21;;;;;;;99.07;88.57;;;;;;;;;;4940217;28;20055;-65
2021/03/26 13:02:54;;;;;;;6.13;5.53;;;;;;;;;;4944149;29;20422;-64
2021/03/26 13:05:22;;;;;;;10.23;9.18;;;;;;;;;;4942384;29;20052;-64
2021/03/26 13:07:47;;;;;;;6.45;4.82;;;;;;;;;;4941938;29;20026;-63
2021/03/26 13:10:25;;;;;;;9.10;3.38;;;;;;;;;;4944603;29;20027;-63
2021/03/26 13:12:51;;;;;;;5.13;3.08;;;;;;;;;;4945350;29;20466;-63
2021/03/26 13:15:24;;;;;;;4.68;1.60;;;;;;;;;;4949410;28;20110;-64
2021/03/26 13:18:00;;;;;;;2.28;1.75;;;;;;;;;;4943562;29;20067;-65
2021/03/26 13:20:25;;;;;;;5.70;2.55;;;;;;;;;;4946783;28;20059;-64
2021/03/26 13:22:53;;;;;;;3.92;2.53;;;;;;;;;;4945770;28;20019;-65
2021/03/26 13:25:43;;;;;;;5.05;2.05;;;;;;;;;;4944252;29;20130;-65
2021/03/26 13:28:12;;;;;;;3.00;1.52;;;;;;;;;;4940915;29;20067;-65
2021/03/26 13:30:50;;;;;;;3.72;2.08;;;;;;;;;;4941413;29;20046;-65
2021/03/26 13:33:18;;;;;;;6.00;2.95;;;;;;;;;;4946756;29;20505;-65
2021/03/26 13:35:47;;;;;;;4.57;2.30;;;;;;;;;;4943758;29;20037;-65
2021/03/26 13:38:30;;;;;;;1.90;1.55;;;;;;;;;;4940044;29;20034;-62
2021/03/26 13:41:00;;;;;;;4.57;2.35;;;;;;;;;;4941703;29;20043;-65
2021/03/26 13:43:26;;;;;;;3.75;2.60;;;;;;;;;;4943459;29;20459;-63
2021/03/26 13:46:03;;;;;;;4.30;2.03;;;;;;;;;;4944952;28;20050;-62
2021/03/26 13:48:36;;;;;;;4.18;2.40;;;;;;;;;;4939345;29;20450;-63
2021/03/26 13:51:04;;;;;;;2.70;2.28;;;;;;;;;;4942471;29;20024;-63
2021/03/26 13:53:43;;;;;;;2.47;1.30;;;;;;;;;;4942777;28;20059;-64
2021/03/26 13:56:24;;;;;;;2.97;1.83;;;;;;;;;;4945689;29;20375;-63
2021/03/26 13:58:51;;;;;;;12.60;3.00;;;;;;;;;;4944087;29;20027;-63
2021/03/26 14:01:27;;;;;;;9.15;2.15;;;;;;;;;;4944011;28;20019;-63
2021/03/26 14:04:02;;;;;;;4.30;2.25;;;;;;;;;;4939972;29;20023;-63
2021/03/26 14:06:30;;;;;;;1.98;1.23;;;;;;;;;;4947182;28;20127;-64
2021/03/26 14:08:55;;;;;;;4.65;1.80;;;;;;;;;;4952725;28;20109;-63
2021/03/26 14:11:46;;;;;;;7.80;2.53;;;;;;;;;;4950894;28;20252;-64
2021/03/26 14:14:15;;;;;;;3.20;1.77;;;;;;;;;;4929509;28;20443;-63
2021/03/26 14:16:52;;;;;;;3.10;1.88;;;;;;;;;;4948989;29;20027;-63
2021/03/26 14:19:27;;;;;;;3.90;1.88;;;;;;;;;;4940911;29;20020;-63
2021/03/26 14:22:03;;;;;;;4.75;2.97;;;;;;;;;;4947847;29;20027;-65
2021/03/26 14:24:34;;;;;;;2.40;1.30;;;;;;;;;;4952434;28;20043;-65
2021/03/26 14:27:02;;;;;;;3.53;2.30;;;;;;;;;;4951956;28;20015;-66
2021/03/26 14:29:46;;;;;;;7.07;1.42;;;;;;;;;;4949442;29;20978;-65
2021/03/26 14:32:18;;;;;;;1.95;1.40;;;;;;;;;;4950127;29;20027;-65
2021/03/26 14:34:45;;;;;;;2.38;1.58;;;;;;;;;;4949443;29;20371;-66
2021/03/26 14:37:16;;;;;;;1.92;1.45;;;;;;;;;;4952986;28;20042;-66
2021/03/26 14:39:43;;;;;;;7.32;2.53;;;;;;;;;;4952443;29;20069;-65
2021/03/26 14:42:27;;;;;;;10.68;2.42;;;;;;;;;;4947808;29;20123;-67
2021/03/26 14:44:58;;;;;;;2.05;1.42;;;;;;;;;;4947887;28;20027;-66
2021/03/26 14:47:25;;;;;;;3.22;1.92;;;;;;;;;;4946396;28;20037;-66
2021/03/26 14:49:56;;;;;;;2.75;2.05;;;;;;;;;;4944339;28;20056;-66
2021/03/26 14:52:27;;;;;;;2.25;1.75;;;;;;;;;;4949969;28;20059;-66
2021/03/26 14:55:01;;;;;;;7.18;2.08;;;;;;;;;;4947190;29;20098;-66
2021/03/26 14:57:45;;;;;;;6.07;3.00;;;;;;;;;;4949347;28;20027;-64
2021/03/26 15:00:29;;;;;;;23.23;10.13;;;;;;;;;;4951364;29;20036;-65
2021/03/26 15:02:54;;;;;;;4.75;2.35;;;;;;;;;;4945495;29;20406;-66
2021/03/26 15:05:26;;;;;;;6.68;1.58;;;;;;;;;;4951579;28;20035;-65